Cambria Heights, New York
Current Conditions -  °F | °C
As of 5:51 PM on Friday 31 Oct 2014 (Local Time) from KJFK Reporting Station
Overcast Overcast  
Wind Chill: 54°   Ceiling: 5500
Heat Index: 54°   Visibility: 10mi
Dew Point: 42°   Wind: 10mph
Humidity: 64%   Direction: 30°NNE
Pressure: 29.9"   Gusts: NA
Location:  40.69°N, 73.74°W
Report Text: KJFK 312151Z 03009KT 10SM FEW027 OVC055 12/06 A2990 RMK AO2 SLP124 T01220056
Loading
Personal Weather Stations






























Interactive Weather Map
Tropical Storm Tracking
New forecast layout! Learn more

10-Day Weather Forecast

Advertisements
Track Severe Weather on mobile